Hovedside
METAR-TAF:

METAR-TAF

Lufthavner :

Ørland hovedflystasjon

Ørland, Norge

breddegrad: 63-42N, lengdegrad: 009-36E, høyde over havet: 0 m

Gjeldene værobservasjon

Denne rapporten ble laget for 28 minutter siden, klokken 18:20 UTC
Vind 11 kt fra Øst-sørøst
Temperatur 2°C
Luftfuktighet 87%
Trykk 1037 hPa
Sikt 10 km eller mer
Få skyer i en høyde av 1200 ft
Brutte skyer i en høyde av 2300 ft

METAR: ENOL 191820Z 12011KT 9999 FEW012 BKN023 02/00 Q1037 TEMPO BKN012

Tid: 19:48 (18:48 UTC)

Varsel

Varsel gyldig fra 19. klokken 18 UTC til 20. klokken 18 UTC
Vind 8 kt fra Øst-sørøst
Sikt 10 km eller mer
Brutte skyer i en høyde av 2000 ft
Midlertidig
fra 19. klokken 18 UTC til 20. klokken 09 UTC
Brutte skyer i en høyde av 1200 ft
Sannsynlighet 30% :
Midlertidig
fra 19. klokken 21 UTC til 20. klokken 09 UTC
Sikt: 0800 m
i en høyde av 500 ft
tåke

TAF: ENOL 1918/2018 12008KT 9999 BKN020 TEMPO 1918/2009 BKN012 PROB30 TEMPO 1921/2009 0800 FG VV005

Værobservasjoner og værvarsel for over 4000 flyplasser (METAR- og TAF-rapporter).

Tilgjengelige stasjoner er representert av de røde og gule prikkene på kartet.

Hold musepekeren over prikken for å se navnet på stasjonen.

Klikk så for å se værobservasjoner og -varsler.

For å forandre kartet kan du klikke på den grønne knappen med svart kryss for å zoome inn, på den grønne knappen med strek for å zoome ut, eller på de grønne pilene for å se tilstøtende kart.


METAR-TAF: